Shamrock, Texas
Current Conditions -  °F | °C
As of 8:35 PM on Saturday 25 Oct 2014 (Local Time) from KHHF Reporting Station
Clear Clear  
Wind Chill: 25°   Ceiling: Unl
Heat Index: 26°   Visibility: 10mi
Dew Point: 10°   Wind: 14mph
Humidity: 38%   Direction: 180°S
Pressure: 30"   Gusts: NA
Location:  35.21°N, 100.25°W
Report Text: KHHF 260135Z AUTO 18012KT 10SM CLR 25/10 A3000 RMK AO2 T02510100
Loading
Personal Weather Stations






























Interactive Weather Map
Tropical Storm Tracking
New forecast layout! Learn more

10-Day Weather Forecast

Advertisements
Track Severe Weather on mobile